Time;durP1;ratioP1;P1;durP2;ratioP2;P2;SDS_P1;SDS_P2;PMS_P1;PMS_P2;Temp;Humidity;BMP_temperature;BMP_pressure;BME280_temperature;BME280_humidity;BME280_pressure;Samples;Min_cycle;Max_cycle;Signal;HPM_P1;HPM_P2
2022/12/09 00:01:08;;;;;;;58.55;19.80;;;;;;;7.82;81.19;99790.00;3135535;28;20134;-65
2022/12/09 00:02:40;;;;;;;47.63;18.20;;;;;;;7.89;81.04;99798.41;3145696;28;20064;-66
2022/12/09 00:04:12;;;;;;;44.17;17.27;;;;;;;7.83;80.93;99791.69;3145629;28;20052;-66
2022/12/09 00:05:44;;;;;;;53.05;17.00;;;;;;;7.92;81.15;99808.69;3145896;28;20088;-67
2022/12/09 00:07:15;;;;;;;45.47;17.33;;;;;;;7.82;81.17;99787.41;3145672;28;20040;-66
2022/12/09 00:08:47;;;;;;;44.53;15.55;;;;;;;7.90;80.86;99798.38;3145744;28;20052;-66
2022/12/09 00:10:19;;;;;;;49.20;17.20;;;;;;;7.90;81.21;99793.19;3145750;28;20507;-67
2022/12/09 00:11:51;;;;;;;48.38;17.13;;;;;;;7.92;81.12;99796.56;3145823;28;20106;-67
2022/12/09 00:13:23;;;;;;;41.22;15.85;;;;;;;7.93;80.87;99803.47;3145674;28;20084;-67
2022/12/09 00:14:55;;;;;;;43.45;15.15;;;;;;;7.94;81.20;99793.94;3145590;28;20052;-66
2022/12/09 00:16:29;;;;;;;35.70;15.07;;;;;;;7.92;81.17;99790.53;3146034;28;20049;-66
2022/12/09 00:18:00;;;;;;;40.55;14.95;;;;;;;7.73;80.83;99767.00;3145585;28;20056;-67
2022/12/09 00:19:33;;;;;;;37.78;14.73;;;;;;;7.92;81.16;99793.97;3145586;28;20351;-66
2022/12/09 00:21:12;;;;;;;41.72;14.68;;;;;;;7.94;80.91;99792.19;3144860;28;20084;-66
2022/12/09 00:22:44;;;;;;;39.13;15.27;;;;;;;7.93;81.18;99793.09;3145532;28;20515;-67
2022/12/09 00:24:16;;;;;;;36.58;14.25;;;;;;;7.94;81.20;99791.34;3145352;28;20118;-66
2022/12/09 00:25:48;;;;;;;38.30;14.57;;;;;;;7.93;81.16;99793.09;3145198;28;20060;-66
2022/12/09 00:27:20;;;;;;;39.13;14.82;;;;;;;7.93;81.19;99793.09;3145516;28;20490;-66
2022/12/09 00:28:54;;;;;;;38.78;14.48;;;;;;;7.93;81.05;99800.88;3145901;28;20058;-66
2022/12/09 00:30:25;;;;;;;;;;;;;;;7.87;81.08;99802.84;3145649;28;20132;-66
2022/12/09 00:31:59;;;;;;;39.35;14.38;;;;;;;7.87;81.35;99803.69;3145237;28;19978;-65
2022/12/09 00:33:30;;;;;;;36.50;13.68;;;;;;;7.88;81.44;99807.09;3145624;28;20051;-64
2022/12/09 00:35:03;;;;;;;37.53;13.95;;;;;;;7.90;81.16;99808.75;3145747;28;20106;-65
2022/12/09 00:36:35;;;;;;;34.90;13.98;;;;;;;7.87;81.26;99808.88;3145495;28;20135;-65
2022/12/09 00:38:06;;;;;;;39.65;14.93;;;;;;;7.87;81.16;99815.81;3145226;28;20050;-64
2022/12/09 00:39:38;;;;;;;37.75;14.43;;;;;;;7.93;81.74;99820.78;3145351;28;20512;-67
2022/12/09 00:41:10;;;;;;;35.97;13.80;;;;;;;7.92;81.55;99817.31;3145202;28;20083;-64
2022/12/09 00:42:42;;;;;;;41.35;14.63;;;;;;;7.92;81.84;99817.31;3145352;28;20071;-65
2022/12/09 00:44:13;;;;;;;35.30;13.95;;;;;;;7.92;81.86;99809.53;3145075;28;20102;-65
2022/12/09 00:45:45;;;;;;;38.38;13.50;;;;;;;7.91;81.44;99813.03;3145214;28;20045;-65
2022/12/09 00:47:18;;;;;;;31.33;13.13;;;;;;;7.92;81.66;99813.88;3145265;28;20048;-65
2022/12/09 00:48:50;;;;;;;38.10;14.70;;;;;;;7.86;81.66;99806.31;3145482;28;20062;-65
2022/12/09 00:50:22;;;;;;;33.80;13.25;;;;;;;7.86;81.78;99799.38;3142890;28;20132;-66
2022/12/09 00:51:54;;;;;;;34.67;14.00;;;;;;;7.91;81.92;99818.22;3141470;28;20048;-66
2022/12/09 00:53:26;;;;;;;40.33;14.52;;;;;;;7.80;81.55;99796.16;3139335;28;20466;-66
2022/12/09 00:54:58;;;;;;;32.40;13.52;;;;;;;7.88;81.57;99807.94;3137982;28;20052;-65
2022/12/09 00:56:31;;;;;;;30.20;12.75;;;;;;;7.89;81.89;99801.84;3136634;28;20048;-64
2022/12/09 00:58:03;;;;;;;29.85;12.93;;;;;;;7.87;81.75;99805.44;3136263;28;20595;-67
2022/12/09 00:59:35;;;;;;;32.40;13.88;;;;;;;7.87;82.02;99801.09;3135412;28;20052;-66
2022/12/09 01:01:09;;;;;;;31.52;12.90;;;;;;;7.86;82.09;99796.78;3135574;28;20114;-66
2022/12/09 01:02:42;;;;;;;33.42;12.80;;;;;;;7.86;82.28;99791.59;3135887;28;20056;-64
2022/12/09 01:04:16;;;;;;;;;;;;;;;7.78;81.83;99798.81;3135743;28;20044;-66
2022/12/09 01:05:48;;;;;;;38.07;13.63;;;;;;;7.77;82.19;99791.91;3135471;28;20282;-65
2022/12/09 01:07:20;;;;;;;38.08;13.98;;;;;;;7.78;82.32;99805.72;3136221;28;20525;-67
2022/12/09 01:08:53;;;;;;;34.38;13.82;;;;;;;7.23;82.22;99707.34;3136850;28;20058;-67
2022/12/09 01:10:25;;;;;;;30.15;13.02;;;;;;;7.80;82.61;99804.75;3136206;28;20790;-65
2022/12/09 01:11:57;;;;;;;33.85;13.07;;;;;;;7.75;82.56;99791.13;3135449;28;20052;-64
2022/12/09 01:13:29;;;;;;;34.45;12.25;;;;;;;7.80;82.31;99798.75;3135435;28;20060;-64
2022/12/09 01:15:01;;;;;;;35.20;12.48;;;;;;;7.80;82.75;99796.16;3135382;28;20063;-66
2022/12/09 01:16:34;;;;;;;31.30;11.90;;;;;;;7.78;82.45;99798.81;3135242;28;20056;-64
2022/12/09 01:18:08;;;;;;;29.70;13.65;;;;;;;7.79;82.73;99797.06;3134756;28;20056;-64
2022/12/09 01:19:39;;;;;;;33.33;12.90;;;;;;;7.78;82.63;99804.00;3135482;28;20078;-64
2022/12/09 01:21:12;;;;;;;30.13;13.05;;;;;;;7.80;82.85;99804.75;3135881;28;20057;-64
2022/12/09 01:22:45;;;;;;;29.60;11.70;;;;;;;7.80;82.68;99801.34;3136238;28;20109;-65
2022/12/09 01:24:17;;;;;;;;;;;;;;;7.74;82.56;99800.63;3136084;28;20056;-65
2022/12/09 01:25:49;;;;;;;26.00;11.10;;;;;;;7.72;82.96;99788.66;3131484;28;20366;-64
2022/12/09 01:27:21;;;;;;;32.40;12.15;;;;;;;7.78;83.01;99793.63;3136007;28;20090;-65
2022/12/09 01:28:55;;;;;;;28.40;12.10;;;;;;;7.75;82.76;99796.31;3134950;28;20071;-65
2022/12/09 01:30:27;;;;;;;27.50;11.95;;;;;;;7.81;82.93;99796.09;3135022;28;20599;-66
2022/12/09 01:32:00;;;;;;;28.15;11.52;;;;;;;7.81;82.90;99798.69;3135056;28;20051;-66
2022/12/09 01:33:33;;;;;;;28.83;11.95;;;;;;;7.85;83.06;99795.09;3135830;28;20149;-66
2022/12/09 01:35:05;;;;;;;;;;;;;;;7.78;82.85;99787.56;3136203;28;20056;-66
2022/12/09 01:36:37;;;;;;;28.65;11.75;;;;;;;7.79;82.86;99789.28;3146271;28;20002;-66
2022/12/09 01:38:09;;;;;;;28.08;11.60;;;;;;;7.81;83.19;99790.91;3134380;28;20125;-67
2022/12/09 01:39:41;;;;;;;31.05;11.80;;;;;;;7.82;83.01;99787.41;3135090;28;20086;-65
2022/12/09 01:41:14;;;;;;;31.52;12.88;;;;;;;7.84;83.01;99796.00;3134313;28;20103;-64
2022/12/09 01:42:46;;;;;;;30.42;12.02;;;;;;;7.85;83.15;99796.84;3134796;28;20287;-65
2022/12/09 01:44:21;;;;;;;28.40;11.18;;;;;;;7.81;83.11;99790.06;3135373;28;20045;-64
2022/12/09 01:45:52;;;;;;;31.63;12.23;;;;;;;7.86;82.81;99789.00;3135972;28;20212;-64
2022/12/09 01:47:24;;;;;;;26.88;10.35;;;;;;;7.89;83.02;99790.66;3135642;28;20110;-65
2022/12/09 01:48:57;;;;;;;25.42;11.10;;;;;;;7.91;82.73;99786.25;3134983;28;20105;-64
2022/12/09 01:50:28;;;;;;;;;;;;;;;7.84;82.60;99785.63;3135914;28;20052;-64
2022/12/09 01:52:05;;;;;;;27.52;11.35;;;;;;;7.84;82.92;99783.03;3135150;28;20398;-65
2022/12/09 01:53:42;;;;;;;24.13;10.52;;;;;;;7.84;82.90;99783.03;3135457;28;20059;-65
2022/12/09 01:55:14;;;;;;;29.83;11.10;;;;;;;7.82;82.72;99771.88;3135153;28;20258;-65
2022/12/09 01:56:45;;;;;;;30.58;12.32;;;;;;;7.42;83.11;99704.97;3134918;28;20535;-65
2022/12/09 01:58:18;;;;;;;29.52;11.50;;;;;;;7.92;82.69;99781.00;3135060;28;20055;-64
2022/12/09 01:59:51;;;;;;;26.05;10.82;;;;;;;7.91;82.87;99778.47;3134608;28;20306;-65
2022/12/09 02:01:23;;;;;;;26.30;11.48;;;;;;;7.89;82.88;99785.47;3135047;28;20838;-66
2022/12/09 02:02:56;;;;;;;27.98;11.20;;;;;;;7.89;82.68;99796.66;3134828;28;20151;-65
2022/12/09 02:04:34;;;;;;;27.38;10.05;;;;;;;7.89;83.11;99791.47;3134707;28;20524;-66
2022/12/09 02:06:05;;;;;;;22.05;10.70;;;;;;;7.88;83.25;99789.81;3135422;28;20113;-65
2022/12/09 02:07:37;;;;;;;26.85;11.35;;;;;;;7.91;83.16;99784.50;3134938;28;20511;-65
2022/12/09 02:09:10;;;;;;;29.98;12.05;;;;;;;7.91;83.11;99773.28;3134702;28;20053;-65
2022/12/09 02:10:49;;;;;;;25.02;11.25;;;;;;;7.90;82.85;99775.06;3135232;28;20106;-64
2022/12/09 02:12:26;;;;;;;29.13;10.63;;;;;;;7.84;82.98;99759.72;3135370;28;20569;-65
2022/12/09 02:14:05;;;;;;;23.33;10.27;;;;;;;7.94;83.11;99766.25;3134187;28;20064;-65
2022/12/09 02:15:42;;;;;;;25.42;10.13;;;;;;;7.94;83.02;99765.41;3133874;28;20052;-65
2022/12/09 02:17:25;;;;;;;30.95;11.05;;;;;;;7.94;82.81;99776.63;3135038;28;20114;-64
2022/12/09 02:19:09;;;;;;;30.08;11.07;;;;;;;7.94;83.06;99773.19;3135654;28;20056;-64
2022/12/09 02:20:48;;;;;;;25.35;10.05;;;;;;;7.92;83.10;99774.97;3134954;28;20479;-66
2022/12/09 02:22:26;;;;;;;22.35;9.48;;;;;;;7.95;82.75;99769.69;3134487;28;20071;-65
2022/12/09 02:24:03;;;;;;;20.38;9.52;;;;;;;7.95;83.02;99780.91;3135406;28;20072;-65
2022/12/09 02:25:42;;;;;;;23.83;10.57;;;;;;;7.95;82.81;99767.94;3134498;28;20080;-65
2022/12/09 02:27:17;;;;;;;21.83;9.40;;;;;;;7.90;82.96;99751.72;3133307;28;20048;-65
2022/12/09 02:29:37;;;;;;;21.50;9.45;;;;;;;7.82;83.02;99745.09;3134574;28;20052;-65
2022/12/09 02:31:22;;;;;;;21.88;8.30;;;;;;;7.48;82.86;99703.06;3107376;28;20104;-64
2022/12/09 02:33:18;;;;;;;20.52;9.00;;;;;;;7.57;83.01;99703.63;3104900;28;20057;-65
2022/12/09 02:34:55;;;;;;;26.15;9.63;;;;;;;7.93;83.00;99761.97;3122044;28;20776;-65
2022/12/09 02:36:34;;;;;;;22.40;9.77;;;;;;;7.95;82.99;99775.72;3146492;28;20086;-64
2022/12/09 02:38:10;;;;;;;21.27;9.63;;;;;;;7.95;83.25;99764.50;3122661;28;20551;-65
2022/12/09 02:39:50;;;;;;;23.50;9.82;;;;;;;7.92;82.99;99769.78;3122612;28;20540;-65
2022/12/09 02:41:26;;;;;;;23.50;9.88;;;;;;;7.96;83.33;99777.44;3134409;28;20501;-65
2022/12/09 02:43:02;;;;;;;24.67;9.48;;;;;;;7.97;83.08;99780.88;3134986;28;20344;-64
2022/12/09 02:44:37;;;;;;;23.23;9.60;;;;;;;7.97;83.04;99783.47;3135836;28;20611;-65
2022/12/09 02:46:11;;;;;;;19.48;8.90;;;;;;;7.97;83.03;99773.91;3134732;28;20049;-65
2022/12/09 02:47:47;;;;;;;21.67;9.18;;;;;;;7.98;82.97;99769.56;3135521;28;20133;-65
2022/12/09 02:49:21;;;;;;;20.50;8.95;;;;;;;7.99;82.93;99781.66;3135091;28;20550;-65
2022/12/09 02:50:57;;;;;;;23.15;9.77;;;;;;;7.98;83.19;99766.97;3135567;28;20635;-66
2022/12/09 02:52:31;;;;;;;23.42;9.57;;;;;;;7.94;83.05;99758.47;3135197;28;20057;-66
2022/12/09 02:54:10;;;;;;;20.88;10.13;;;;;;;7.97;83.25;99760.97;3134331;28;20162;-65
2022/12/09 02:55:45;;;;;;;22.50;9.95;;;;;;;7.98;83.26;99764.38;3138128;28;20510;-65
2022/12/09 02:57:19;;;;;;;22.80;9.50;;;;;;;7.98;83.02;99773.00;3131411;28;20506;-66
2022/12/09 02:58:51;;;;;;;21.17;9.68;;;;;;;7.79;83.30;99748.63;3143725;28;20102;-66
2022/12/09 03:00:23;;;;;;;25.38;9.63;;;;;;;7.98;83.00;99788.56;3143695;28;20359;-65
2022/12/09 03:02:06;;;;;;;21.73;10.10;;;;;;;8.00;82.97;99788.53;3143154;28;20052;-65
2022/12/09 03:03:38;;;;;;;24.17;9.15;;;;;;;8.00;83.08;99787.69;3144170;28;20348;-65
2022/12/09 03:05:16;;;;;;;28.27;9.80;;;;;;;7.96;83.11;99772.25;3143823;28;20053;-65
2022/12/09 03:06:52;;;;;;;23.15;10.25;;;;;;;7.95;82.97;99767.94;3143734;28;20125;-66
2022/12/09 03:08:31;;;;;;;25.42;10.65;;;;;;;8.01;83.02;99766.88;3143719;28;20052;-65
2022/12/09 03:10:10;;;;;;;21.95;9.43;;;;;;;7.95;82.93;99767.09;3143116;28;20325;-66
2022/12/09 03:11:42;;;;;;;24.80;10.30;;;;;;;7.97;83.13;99779.09;3144077;28;20059;-67
2022/12/09 03:13:19;;;;;;;22.55;9.68;;;;;;;7.97;82.85;99789.47;3143762;28;20440;-66
2022/12/09 03:14:54;;;;;;;24.67;10.13;;;;;;;7.95;83.03;99793.88;3143529;28;20075;-65
2022/12/09 03:16:31;;;;;;;25.48;10.32;;;;;;;7.97;83.13;99792.06;3144160;28;20056;-64
2022/12/09 03:18:10;;;;;;;24.85;9.95;;;;;;;7.97;83.26;99793.81;3143941;28;20060;-66
2022/12/09 03:19:45;;;;;;;24.33;9.93;;;;;;;7.92;83.03;99781.00;3144108;28;20048;-64
2022/12/09 03:21:21;;;;;;;25.73;10.43;;;;;;;7.97;83.42;99792.06;3143658;28;20044;-66
2022/12/09 03:22:59;;;;;;;26.45;10.80;;;;;;;7.95;83.10;99783.50;3143618;28;20056;-65
2022/12/09 03:24:36;;;;;;;22.20;10.05;;;;;;;7.96;83.19;99793.00;3143963;28;20067;-64
2022/12/09 03:26:08;;;;;;;21.40;9.20;;;;;;;7.96;83.16;99787.81;3143952;28;20148;-67
2022/12/09 03:27:46;;;;;;;26.80;10.25;;;;;;;7.95;83.29;99793.88;3143596;28;20048;-64
2022/12/09 03:29:21;;;;;;;22.30;9.15;;;;;;;7.94;83.61;99799.97;3143427;28;20126;-64
2022/12/09 03:30:56;;;;;;;20.67;9.43;;;;;;;7.94;83.38;99802.56;3143586;28;20098;-66
2022/12/09 03:32:30;;;;;;;21.92;10.25;;;;;;;7.92;83.59;99812.13;3144261;28;20049;-64
2022/12/09 03:34:06;;;;;;;23.95;9.50;;;;;;;7.44;83.65;99742.06;3140405;28;20048;-65
2022/12/09 03:35:42;;;;;;;27.42;10.55;;;;;;;7.86;83.42;99801.97;3145892;28;20083;-65
2022/12/09 03:37:16;;;;;;;25.20;11.07;;;;;;;7.94;83.49;99812.94;3152354;28;20473;-66
2022/12/09 03:38:51;;;;;;;;;;;;;;;7.87;83.59;99803.69;3146958;28;20077;-66
2022/12/09 03:40:27;;;;;;;24.50;11.07;;;;;;;7.87;83.96;99803.69;3146298;28;19924;-65
2022/12/09 03:42:03;;;;;;;22.60;10.35;;;;;;;7.90;83.74;99813.09;3146111;28;20048;-66
2022/12/09 03:43:40;;;;;;;20.15;9.57;;;;;;;7.90;83.65;99819.13;3145710;28;20052;-66
2022/12/09 03:45:15;;;;;;;23.13;9.48;;;;;;;7.90;83.66;99818.28;3145835;28;20059;-66
2022/12/09 03:46:47;;;;;;;23.50;9.85;;;;;;;7.92;83.79;99819.06;3146252;28;20113;-65
2022/12/09 03:48:19;;;;;;;21.20;10.27;;;;;;;7.90;83.67;99811.34;3145922;28;20049;-65
2022/12/09 03:49:51;;;;;;;23.08;10.65;;;;;;;7.91;83.77;99815.63;3145969;28;20194;-65
2022/12/09 03:51:28;;;;;;;27.27;11.02;;;;;;;7.85;83.95;99799.44;3145872;28;20048;-65
2022/12/09 03:53:05;;;;;;;27.55;10.88;;;;;;;7.92;83.62;99811.28;3145908;28;20544;-65
2022/12/09 03:54:43;;;;;;;26.15;11.30;;;;;;;7.88;83.71;99805.34;3146121;28;20049;-66
2022/12/09 03:56:21;;;;;;;29.02;10.15;;;;;;;7.09;83.87;99681.91;3145773;28;20151;-65
2022/12/09 03:57:56;;;;;;;24.98;10.77;;;;;;;7.89;83.91;99804.44;3146055;28;20068;-65
2022/12/09 03:59:30;;;;;;;26.25;10.05;;;;;;;7.90;83.83;99803.56;3145878;28;20063;-65
2022/12/09 04:01:03;;;;;;;24.33;10.90;;;;;;;7.90;83.65;99795.78;3135453;28;20560;-65
2022/12/09 04:02:34;;;;;;;28.85;11.02;;;;;;;7.90;83.82;99802.72;3145760;28;20144;-65
2022/12/09 04:04:07;;;;;;;26.48;10.65;;;;;;;7.09;83.60;99684.47;3145712;28;20107;-65
2022/12/09 04:05:38;;;;;;;25.33;10.93;;;;;;;7.91;83.67;99805.25;3145635;28;20433;-65
2022/12/09 04:07:10;;;;;;;27.75;12.30;;;;;;;7.90;83.75;99806.16;3145622;28;20048;-66
2022/12/09 04:08:42;;;;;;;26.77;10.50;;;;;;;7.84;83.87;99793.41;3145806;28;20124;-66
2022/12/09 04:10:14;;;;;;;25.13;11.95;;;;;;;7.91;83.88;99805.25;3145604;28;20056;-64
2022/12/09 04:11:46;;;;;;;40.92;11.63;;;;;;;7.90;83.71;99802.72;3146213;28;20131;-65
2022/12/09 04:13:18;;;;;;;28.15;11.05;;;;;;;7.84;83.89;99793.41;3145795;28;20059;-64
2022/12/09 04:14:50;;;;;;;25.77;11.32;;;;;;;7.91;83.77;99805.25;3145547;28;20045;-65
2022/12/09 04:16:22;;;;;;;31.85;11.35;;;;;;;7.86;84.07;99804.56;3146016;28;20053;-65
2022/12/09 04:17:53;;;;;;;25.15;10.15;;;;;;;7.84;83.99;99793.41;3145743;28;20579;-65
2022/12/09 04:19:25;;;;;;;24.77;10.63;;;;;;;7.86;83.81;99794.19;3145383;28;20052;-65
2022/12/09 04:20:57;;;;;;;26.65;10.32;;;;;;;7.91;84.15;99797.47;3145742;28;20664;-66
2022/12/09 04:22:30;;;;;;;25.08;11.13;;;;;;;7.88;83.73;99784.63;3145521;28;20049;-65
2022/12/09 04:24:01;;;;;;;28.15;10.95;;;;;;;7.93;83.97;99789.66;3145329;28;20418;-65
2022/12/09 04:25:34;;;;;;;32.75;11.63;;;;;;;7.94;83.98;99786.16;3145727;28;20158;-66
2022/12/09 04:27:06;;;;;;;32.70;12.68;;;;;;;7.94;84.22;99783.56;3145509;28;20125;-65
2022/12/09 04:28:38;;;;;;;28.27;11.52;;;;;;;7.92;84.24;99781.00;3145791;28;20053;-65
2022/12/09 04:30:10;;;;;;;32.35;11.52;;;;;;;7.95;84.09;99782.66;3145344;28;20514;-66
2022/12/09 04:31:42;;;;;;;29.77;11.90;;;;;;;7.94;84.25;99783.56;3145494;28;20098;-66
2022/12/09 04:33:14;;;;;;;24.92;10.80;;;;;;;7.95;84.00;99785.25;3145236;28;20368;-66
2022/12/09 04:34:46;;;;;;;25.00;10.55;;;;;;;7.89;84.27;99775.94;3145900;28;20059;-65
2022/12/09 04:36:19;;;;;;;31.80;11.90;;;;;;;7.95;84.01;99787.84;3156507;28;20048;-65
2022/12/09 04:37:50;;;;;;;28.42;11.25;;;;;;;7.94;84.00;99787.00;3146089;28;20066;-64
2022/12/09 04:39:22;;;;;;;28.20;12.02;;;;;;;7.82;83.83;99763.25;3145421;28;20052;-65
2022/12/09 04:40:55;;;;;;;31.42;12.98;;;;;;;7.89;83.65;99777.69;3145605;28;20056;-64
2022/12/09 04:42:27;;;;;;;24.05;11.52;;;;;;;7.50;83.73;99729.72;3145216;28;20189;-65
2022/12/09 04:44:01;;;;;;;27.65;10.90;;;;;;;7.95;84.00;99788.69;3139024;28;20048;-65
2022/12/09 04:45:33;;;;;;;;;;;;;;;7.89;83.73;99782.88;3145329;28;20040;-66
2022/12/09 04:47:05;;;;;;;22.77;10.20;;;;;;;7.86;83.89;99781.22;3145520;28;19924;-65
2022/12/09 04:48:36;;;;;;;25.02;11.30;;;;;;;7.87;83.81;99782.94;3145453;28;20071;-66
2022/12/09 04:50:08;;;;;;;25.08;10.63;;;;;;;7.86;84.04;99783.81;3142832;28;20048;-65
2022/12/09 04:51:40;;;;;;;29.45;11.40;;;;;;;7.86;84.01;99790.75;3140151;28;20434;-66
2022/12/09 04:53:12;;;;;;;29.20;11.70;;;;;;;7.85;84.02;99787.31;3140143;28;20063;-66
2022/12/09 04:54:44;;;;;;;27.02;10.88;;;;;;;7.84;84.19;99775.25;3139827;28;20048;-66
2022/12/09 04:56:19;;;;;;;31.85;11.80;;;;;;;7.83;84.08;99775.31;3140022;28;20155;-66
2022/12/09 04:57:51;;;;;;;31.75;11.27;;;;;;;7.87;83.80;99790.72;3140173;28;20048;-66
2022/12/09 04:59:23;;;;;;;34.45;12.32;;;;;;;7.89;83.86;99795.81;3139860;28;20067;-66
2022/12/09 05:00:54;;;;;;;33.63;12.63;;;;;;;7.89;84.24;99791.47;3139841;28;20048;-66
2022/12/09 05:02:26;;;;;;;34.92;12.10;;;;;;;7.89;84.08;99796.66;3139492;28;20094;-66
2022/12/09 05:03:59;;;;;;;31.15;12.45;;;;;;;7.75;84.07;99773.81;3139959;28;20052;-66
2022/12/09 05:05:31;;;;;;;29.90;12.45;;;;;;;7.91;83.85;99801.81;3140155;28;20083;-66
2022/12/09 05:07:03;;;;;;;37.97;17.77;;;;;;;7.84;83.97;99788.22;3140048;28;20798;-66
2022/12/09 05:08:35;;;;;;;32.53;14.23;;;;;;;7.91;84.35;99804.41;3140052;28;20053;-66
2022/12/09 05:10:08;;;;;;;33.03;12.38;;;;;;;7.91;84.06;99799.22;3139964;28;20064;-66
2022/12/09 05:11:41;;;;;;;31.80;12.95;;;;;;;7.92;84.04;99801.75;3140139;28;20106;-66
2022/12/09 05:13:13;;;;;;;;;;;;;;;7.84;84.23;99796.00;3140370;28;20084;-66
2022/12/09 05:14:45;;;;;;;29.75;12.13;;;;;;;7.84;84.44;99800.31;3139990;28;19936;-66
2022/12/09 05:16:19;;;;;;;28.25;13.18;;;;;;;7.74;83.97;99781.63;3139763;28;20495;-66
2022/12/09 05:17:51;;;;;;;38.67;13.45;;;;;;;7.86;84.28;99807.16;3139829;28;20057;-66
2022/12/09 05:19:23;;;;;;;33.25;13.88;;;;;;;7.87;84.37;99815.81;3139890;28;20143;-66
2022/12/09 05:20:55;;;;;;;34.15;13.73;;;;;;;7.78;84.00;99800.53;3140164;28;20110;-66
2022/12/09 05:22:27;;;;;;;35.25;12.90;;;;;;;7.85;84.24;99818.44;3139662;28;20118;-66
2022/12/09 05:24:00;;;;;;;37.30;13.38;;;;;;;7.81;84.04;99803.00;3139529;28;20219;-66
2022/12/09 05:25:32;;;;;;;26.92;12.18;;;;;;;7.70;83.89;99795.63;3139936;28;20048;-67
2022/12/09 05:27:05;;;;;;;30.33;12.80;;;;;;;7.86;83.97;99808.91;3139765;28;20049;-66
2022/12/09 05:28:38;;;;;;;32.10;12.63;;;;;;;7.83;84.34;99806.41;3140047;28;20577;-66
2022/12/09 05:30:10;;;;;;;32.38;12.45;;;;;;;7.82;84.59;99810.75;3139329;28;20143;-66
2022/12/09 05:31:42;;;;;;;31.67;14.10;;;;;;;7.75;84.24;99796.31;3137486;28;20522;-64
2022/12/09 05:33:14;;;;;;;29.05;11.65;;;;;;;7.83;84.21;99807.25;3129342;28;20059;-66
2022/12/09 05:34:48;;;;;;;33.83;12.40;;;;;;;7.83;84.39;99807.25;3139926;28;20151;-64
2022/12/09 05:36:24;;;;;;;;;;;;;;;7.77;84.08;99809.22;3149768;28;20136;-64
2022/12/09 05:37:56;;;;;;;28.83;11.98;;;;;;;7.75;84.35;99811.88;3139945;28;20505;-66
2022/12/09 05:39:28;;;;;;;29.95;12.82;;;;;;;7.71;84.31;99785.19;3139647;28;20129;-66
2022/12/09 05:41:00;;;;;;;31.95;11.65;;;;;;;7.79;84.14;99808.25;3139364;28;20098;-66
2022/12/09 05:42:33;;;;;;;31.88;11.60;;;;;;;7.82;84.21;99800.38;3139787;28;20052;-65
2022/12/09 05:44:06;;;;;;;31.90;12.27;;;;;;;7.80;84.27;99802.16;3139603;28;20056;-66
2022/12/09 05:45:36;;;;;;;32.28;12.77;;;;;;;7.79;84.02;99810.00;3139155;28;20080;-67
2022/12/09 05:47:09;;;;;;;42.08;13.60;;;;;;;7.78;84.15;99804.00;3139433;28;20132;-65
2022/12/09 05:48:40;;;;;;;27.98;12.60;;;;;;;7.78;83.95;99809.19;3139822;28;20049;-65
2022/12/09 05:50:12;;;;;;;34.83;13.45;;;;;;;7.79;84.12;99812.59;3139052;28;20561;-65
2022/12/09 05:51:44;;;;;;;37.10;13.75;;;;;;;7.77;84.07;99811.81;3139682;28;20061;-65
2022/12/09 05:53:16;;;;;;;30.85;12.35;;;;;;;7.77;84.04;99810.06;3139254;28;20049;-65
2022/12/09 05:54:48;;;;;;;33.33;13.60;;;;;;;7.79;84.42;99810.84;3139342;28;20083;-65
2022/12/09 05:56:21;;;;;;;27.38;12.80;;;;;;;7.80;84.13;99811.69;3138539;28;20048;-65
2022/12/09 05:57:55;;;;;;;38.55;14.30;;;;;;;7.79;84.19;99812.59;3138770;28;20485;-66
2022/12/09 05:59:26;;;;;;;;;;;;;;;7.72;84.26;99817.16;3139455;28;20159;-66
2022/12/09 06:01:04;;;;;;;32.67;12.40;;;;;;;7.71;84.58;99813.69;3139473;28;19924;-65
2022/12/09 06:02:36;;;;;;;31.88;12.23;;;;;;;7.56;84.77;99783.09;3139203;28;20164;-65
2022/12/09 06:04:08;;;;;;;34.20;12.88;;;;;;;7.72;84.64;99801.59;3139099;28;20189;-70
2022/12/09 06:05:40;;;;;;;42.83;14.60;;;;;;;7.78;84.79;99811.78;3139409;28;20509;-68
2022/12/09 06:07:12;;;;;;;39.78;13.15;;;;;;;7.79;84.51;99822.97;3138909;28;20075;-68
2022/12/09 06:08:45;;;;;;;33.90;12.20;;;;;;;7.36;84.51;99754.41;3139216;28;20052;-67
2022/12/09 06:10:17;;;;;;;35.08;12.32;;;;;;;7.74;84.55;99820.53;3139270;28;20330;-66
2022/12/09 06:11:49;;;;;;;34.85;12.38;;;;;;;7.80;84.87;99828.09;3138961;28;20342;-68
2022/12/09 06:13:22;;;;;;;32.03;12.07;;;;;;;7.80;84.50;99830.69;3139123;28;20505;-68
2022/12/09 06:14:54;;;;;;;37.20;13.00;;;;;;;7.80;84.59;99832.44;3139442;28;20056;-67
2022/12/09 06:16:26;;;;;;;34.22;12.25;;;;;;;7.82;84.61;99838.44;3138923;28;20044;-68
2022/12/09 06:17:58;;;;;;;40.28;12.20;;;;;;;7.81;84.69;99832.41;3137891;28;20049;-68
2022/12/09 06:19:30;;;;;;;38.60;12.38;;;;;;;7.80;84.35;99838.47;3137423;28;20105;-68
2022/12/09 06:21:06;;;;;;;37.83;11.95;;;;;;;7.73;84.27;99840.41;3138697;28;20052;-67
2022/12/09 06:22:38;;;;;;;35.90;12.20;;;;;;;7.78;84.36;99855.84;3137865;28;20059;-67
2022/12/09 06:24:10;;;;;;;38.33;13.40;;;;;;;7.72;84.59;99854.28;3138165;28;20575;-68
2022/12/09 06:25:44;;;;;;;31.08;11.95;;;;;;;7.78;84.42;99860.16;3137757;28;20056;-66
2022/12/09 06:27:16;;;;;;;33.40;12.43;;;;;;;7.72;84.51;99850.84;3137356;28;20098;-68
2022/12/09 06:28:50;;;;;;;34.90;12.63;;;;;;;7.75;84.63;99861.97;3137900;28;20147;-67
2022/12/09 06:30:21;;;;;;;;;;;;;;;7.70;84.70;99860.41;3138730;28;20049;-68
2022/12/09 06:31:53;;;;;;;30.35;12.25;;;;;;;7.65;84.91;99845.00;3137417;28;20003;-67
2022/12/09 06:33:26;;;;;;;31.15;12.27;;;;;;;7.73;84.80;99857.72;3138252;28;20049;-67
2022/12/09 06:34:58;;;;;;;29.83;12.80;;;;;;;7.74;84.42;99859.41;3138085;28;20060;-69
2022/12/09 06:36:31;;;;;;;34.00;12.60;;;;;;;7.55;84.13;99827.22;3137446;28;20091;-69
2022/12/09 06:38:03;;;;;;;;;;;;;;;7.66;84.22;99857.09;3137577;28;20048;-69
2022/12/09 06:39:35;;;;;;;37.20;13.43;;;;;;;7.64;84.52;99865.81;3138245;28;20324;-69
2022/12/09 06:41:08;;;;;;;35.97;14.10;;;;;;;7.63;84.27;99861.50;3137726;28;20060;-67
2022/12/09 06:42:40;;;;;;;33.47;13.52;;;;;;;7.60;84.05;99864.19;3139064;28;20129;-66
2022/12/09 06:44:14;;;;;;;34.72;14.27;;;;;;;7.59;84.06;99857.31;3138322;28;20059;-63
2022/12/09 06:45:46;;;;;;;31.35;13.02;;;;;;;7.56;83.99;99871.22;3136899;28;20788;-64
2022/12/09 06:47:18;;;;;;;33.15;13.13;;;;;;;7.44;83.94;99846.53;3137997;28;20052;-63
2022/12/09 06:48:50;;;;;;;33.45;13.60;;;;;;;7.55;84.34;99861.75;3138946;28;20299;-64
2022/12/09 06:50:23;;;;;;;29.90;13.02;;;;;;;7.56;84.48;99860.00;3138445;28;20145;-66
2022/12/09 06:51:55;;;;;;;27.67;12.73;;;;;;;7.56;84.07;99865.19;3139042;28;20503;-66
2022/12/09 06:53:27;;;;;;;37.38;12.95;;;;;;;7.57;84.26;99857.34;3138728;28;20083;-68
2022/12/09 06:54:58;;;;;;;106.85;53.22;;;;;;;7.58;84.12;99863.41;3138519;28;20581;-67
2022/12/09 06:56:32;;;;;;;71.97;34.08;;;;;;;7.51;84.39;99847.19;3139045;28;20048;-68
2022/12/09 06:58:21;;;;;;;35.75;14.65;;;;;;;7.61;84.33;99860.72;3139575;28;20102;-67
2022/12/09 06:59:54;;;;;;;36.78;16.02;;;;;;;7.62;84.62;99867.59;3143683;28;20094;-66
2022/12/09 07:01:26;;;;;;;32.47;13.52;;;;;;;7.50;84.82;99846.34;3143929;28;20049;-67
2022/12/09 07:02:58;;;;;;;112.40;50.65;;;;;;;7.46;84.76;99829.22;3136092;28;20109;-67
2022/12/09 07:04:30;;;;;;;67.57;29.33;;;;;;;7.62;84.83;99863.25;3144319;28;20048;-68
2022/12/09 07:06:02;;;;;;;62.20;27.83;;;;;;;7.66;84.83;99861.41;3143571;28;20476;-70
2022/12/09 07:07:34;;;;;;;36.47;13.75;;;;;;;7.60;84.94;99851.22;3144802;28;20067;-69
2022/12/09 07:09:08;;;;;;;30.63;11.43;;;;;;;7.72;84.80;99861.22;3136579;28;20060;-69
2022/12/09 07:10:44;;;;;;;27.50;12.05;;;;;;;7.67;84.60;99855.34;3146689;28;20181;-68
2022/12/09 07:12:16;;;;;;;30.98;11.40;;;;;;;7.74;84.63;99865.44;3145559;28;20048;-69
2022/12/09 07:13:48;;;;;;;25.70;10.93;;;;;;;7.76;84.49;99862.81;3142314;28;20056;-69
2022/12/09 07:15:21;;;;;;;22.17;10.30;;;;;;;7.77;84.21;99863.66;3145489;28;20854;-67
2022/12/09 07:16:53;;;;;;;22.30;10.40;;;;;;;7.38;84.03;99799.25;3145214;28;20603;-69
2022/12/09 07:18:25;;;;;;;27.05;10.45;;;;;;;7.73;83.93;99855.13;3145646;28;20051;-68